Columbia (CAE/KCAE)

Map

Destinations

Information

Location
Columbia, SC
Local Time
04:11 / 4:11 am
GMT Time
08:11 / 8:11 am
Gates
Unassigned
No FAA reported delays
METAR KCAE 270756Z 26003KT 10SM CLR 19/15 A2998 RMK AO2 SLP149 T01940150
TAF KCAE 270525Z 2706/2806 VRB03KT P6SM FEW250 FM271500 25014G22KT P6SM SCT250 FM272300 24007KT P6SM SCT250